sensor_id;sensor_type;location;lat;lon;timestamp;P1;durP1;ratioP1;P2;durP2;ratioP2
10463;SDS011;5279;42.048;24.638;2024-02-04T00:00:22;2.00;;;1.80;;
10463;SDS011;5279;42.048;24.638;2024-02-04T00:02:49;2.50;;;1.80;;
10463;SDS011;5279;42.048;24.638;2024-02-04T00:05:15;2.47;;;1.87;;
10463;SDS011;5279;42.048;24.638;2024-02-04T00:07:44;2.10;;;1.83;;
10463;SDS011;5279;42.048;24.638;2024-02-04T00:10:11;1.90;;;1.80;;
10463;SDS011;5279;42.048;24.638;2024-02-04T00:12:40;2.20;;;1.70;;
10463;SDS011;5279;42.048;24.638;2024-02-04T00:15:16;1.80;;;1.70;;
10463;SDS011;5279;42.048;24.638;2024-02-04T00:17:42;1.77;;;1.63;;
10463;SDS011;5279;42.048;24.638;2024-02-04T00:20:09;1.80;;;1.60;;
10463;SDS011;5279;42.048;24.638;2024-02-04T00:22:36;1.80;;;1.60;;
10463;SDS011;5279;42.048;24.638;2024-02-04T00:25:05;2.23;;;1.77;;
10463;SDS011;5279;42.048;24.638;2024-02-04T00:27:41;1.73;;;1.43;;
10463;SDS011;5279;42.048;24.638;2024-02-04T00:30:08;1.80;;;1.40;;
10463;SDS011;5279;42.048;24.638;2024-02-04T00:32:35;1.57;;;1.43;;
10463;SDS011;5279;42.048;24.638;2024-02-04T00:35:02;1.70;;;1.60;;
10463;SDS011;5279;42.048;24.638;2024-02-04T00:37:28;3.33;;;2.00;;
10463;SDS011;5279;42.048;24.638;2024-02-04T00:39:55;2.50;;;1.60;;
10463;SDS011;5279;42.048;24.638;2024-02-04T00:42:23;3.37;;;1.67;;
10463;SDS011;5279;42.048;24.638;2024-02-04T00:44:50;1.50;;;1.40;;
10463;SDS011;5279;42.048;24.638;2024-02-04T00:47:17;1.83;;;1.50;;
10463;SDS011;5279;42.048;24.638;2024-02-04T00:49:46;1.83;;;1.73;;
10463;SDS011;5279;42.048;24.638;2024-02-04T00:52:13;1.90;;;1.53;;
10463;SDS011;5279;42.048;24.638;2024-02-04T00:54:40;3.30;;;1.80;;
10463;SDS011;5279;42.048;24.638;2024-02-04T00:57:07;1.70;;;1.50;;
10463;SDS011;5279;42.048;24.638;2024-02-04T01:02:30;1.50;;;1.40;;
10463;SDS011;5279;42.048;24.638;2024-02-04T01:04:56;1.73;;;1.63;;
10463;SDS011;5279;42.048;24.638;2024-02-04T01:07:23;1.60;;;1.50;;
10463;SDS011;5279;42.048;24.638;2024-02-04T01:09:50;1.80;;;1.50;;
10463;SDS011;5279;42.048;24.638;2024-02-04T01:12:16;1.47;;;1.37;;
10463;SDS011;5279;42.048;24.638;2024-02-04T01:14:43;2.60;;;1.90;;
10463;SDS011;5279;42.048;24.638;2024-02-04T01:17:11;3.10;;;1.90;;
10463;SDS011;5279;42.048;24.638;2024-02-04T01:19:38;1.67;;;1.43;;
10463;SDS011;5279;42.048;24.638;2024-02-04T01:22:04;1.60;;;1.50;;
10463;SDS011;5279;42.048;24.638;2024-02-04T01:24:31;2.00;;;1.70;;
10463;SDS011;5279;42.048;24.638;2024-02-04T01:26:58;4.07;;;1.97;;
10463;SDS011;5279;42.048;24.638;2024-02-04T01:29:25;1.80;;;1.60;;
10463;SDS011;5279;42.048;24.638;2024-02-04T01:31:52;2.03;;;1.70;;
10463;SDS011;5279;42.048;24.638;2024-02-04T01:34:20;1.80;;;1.70;;
10463;SDS011;5279;42.048;24.638;2024-02-04T01:36:47;1.80;;;1.50;;
10463;SDS011;5279;42.048;24.638;2024-02-04T01:39:14;1.70;;;1.60;;
10463;SDS011;5279;42.048;24.638;2024-02-04T01:41:41;2.07;;;1.70;;
10463;SDS011;5279;42.048;24.638;2024-02-04T01:44:10;3.13;;;2.13;;
10463;SDS011;5279;42.048;24.638;2024-02-04T01:46:37;1.90;;;1.70;;
10463;SDS011;5279;42.048;24.638;2024-02-04T01:49:03;2.00;;;1.80;;
10463;SDS011;5279;42.048;24.638;2024-02-04T01:51:32;1.97;;;1.63;;
10463;SDS011;5279;42.048;24.638;2024-02-04T01:53:58;2.70;;;1.70;;
10463;SDS011;5279;42.048;24.638;2024-02-04T01:56:26;2.07;;;1.83;;
10463;SDS011;5279;42.048;24.638;2024-02-04T01:58:53;2.10;;;1.90;;
10463;SDS011;5279;42.048;24.638;2024-02-04T02:01:20;2.57;;;1.80;;
10463;SDS011;5279;42.048;24.638;2024-02-04T02:03:48;2.00;;;1.80;;
10463;SDS011;5279;42.048;24.638;2024-02-04T02:06:15;2.37;;;1.80;;
10463;SDS011;5279;42.048;24.638;2024-02-04T02:08:44;2.40;;;2.10;;
10463;SDS011;5279;42.048;24.638;2024-02-04T02:11:11;2.30;;;1.90;;
10463;SDS011;5279;42.048;24.638;2024-02-04T02:13:44;2.10;;;1.90;;
10463;SDS011;5279;42.048;24.638;2024-02-04T02:16:19;3.17;;;1.70;;
10463;SDS011;5279;42.048;24.638;2024-02-04T02:18:49;1.93;;;1.80;;
10463;SDS011;5279;42.048;24.638;2024-02-04T02:21:26;2.20;;;2.00;;
10463;SDS011;5279;42.048;24.638;2024-02-04T02:24:10;2.20;;;2.00;;
10463;SDS011;5279;42.048;24.638;2024-02-04T02:26:44;2.23;;;1.70;;
10463;SDS011;5279;42.048;24.638;2024-02-04T02:29:12;2.23;;;1.97;;
10463;SDS011;5279;42.048;24.638;2024-02-04T02:31:38;1.80;;;1.70;;
10463;SDS011;5279;42.048;24.638;2024-02-04T02:34:07;1.90;;;1.80;;
10463;SDS011;5279;42.048;24.638;2024-02-04T02:36:36;2.03;;;1.60;;
10463;SDS011;5279;42.048;24.638;2024-02-04T02:39:12;2.40;;;1.97;;
10463;SDS011;5279;42.048;24.638;2024-02-04T02:41:45;2.10;;;1.90;;
10463;SDS011;5279;42.048;24.638;2024-02-04T02:44:15;2.70;;;1.87;;
10463;SDS011;5279;42.048;24.638;2024-02-04T02:46:42;1.83;;;1.73;;
10463;SDS011;5279;42.048;24.638;2024-02-04T02:49:09;3.07;;;2.00;;
10463;SDS011;5279;42.048;24.638;2024-02-04T02:51:36;2.00;;;1.70;;
10463;SDS011;5279;42.048;24.638;2024-02-04T02:54:03;2.37;;;2.00;;
10463;SDS011;5279;42.048;24.638;2024-02-04T02:56:30;1.90;;;1.80;;
10463;SDS011;5279;42.048;24.638;2024-02-04T02:58:58;2.73;;;1.90;;
10463;SDS011;5279;42.048;24.638;2024-02-04T03:01:24;1.70;;;1.60;;
10463;SDS011;5279;42.048;24.638;2024-02-04T03:03:51;5.77;;;2.97;;
10463;SDS011;5279;42.048;24.638;2024-02-04T03:06:18;2.00;;;1.90;;
10463;SDS011;5279;42.048;24.638;2024-02-04T03:08:44;1.90;;;1.73;;
10463;SDS011;5279;42.048;24.638;2024-02-04T03:11:11;2.07;;;1.90;;
10463;SDS011;5279;42.048;24.638;2024-02-04T03:13:38;1.80;;;1.70;;
10463;SDS011;5279;42.048;24.638;2024-02-04T03:16:10;2.43;;;2.20;;
10463;SDS011;5279;42.048;24.638;2024-02-04T03:18:38;2.10;;;1.90;;
10463;SDS011;5279;42.048;24.638;2024-02-04T03:21:11;2.13;;;1.63;;
10463;SDS011;5279;42.048;24.638;2024-02-04T03:23:39;3.13;;;2.30;;
10463;SDS011;5279;42.048;24.638;2024-02-04T03:26:06;1.63;;;1.53;;
10463;SDS011;5279;42.048;24.638;2024-02-04T03:28:32;1.80;;;1.50;;
10463;SDS011;5279;42.048;24.638;2024-02-04T03:30:59;1.60;;;1.50;;
10463;SDS011;5279;42.048;24.638;2024-02-04T03:33:27;4.13;;;1.60;;
10463;SDS011;5279;42.048;24.638;2024-02-04T03:35:54;1.60;;;1.50;;
10463;SDS011;5279;42.048;24.638;2024-02-04T03:38:21;1.83;;;1.60;;
10463;SDS011;5279;42.048;24.638;2024-02-04T03:40:47;1.70;;;1.60;;
10463;SDS011;5279;42.048;24.638;2024-02-04T03:43:14;1.87;;;1.67;;
10463;SDS011;5279;42.048;24.638;2024-02-04T03:45:41;3.77;;;1.70;;
10463;SDS011;5279;42.048;24.638;2024-02-04T03:48:07;1.70;;;1.60;;
10463;SDS011;5279;42.048;24.638;2024-02-04T03:50:36;1.77;;;1.67;;
10463;SDS011;5279;42.048;24.638;2024-02-04T03:53:03;2.13;;;1.77;;
10463;SDS011;5279;42.048;24.638;2024-02-04T03:55:30;1.87;;;1.77;;
10463;SDS011;5279;42.048;24.638;2024-02-04T03:57:57;1.73;;;1.63;;
10463;SDS011;5279;42.048;24.638;2024-02-04T04:00:30;2.03;;;1.83;;
10463;SDS011;5279;42.048;24.638;2024-02-04T04:02:57;2.07;;;1.87;;
10463;SDS011;5279;42.048;24.638;2024-02-04T04:05:23;2.10;;;1.90;;
10463;SDS011;5279;42.048;24.638;2024-02-04T04:07:52;3.03;;;2.00;;
10463;SDS011;5279;42.048;24.638;2024-02-04T04:10:19;2.33;;;1.90;;
10463;SDS011;5279;42.048;24.638;2024-02-04T04:12:46;2.13;;;1.80;;
10463;SDS011;5279;42.048;24.638;2024-02-04T04:18:08;3.13;;;1.80;;
10463;SDS011;5279;42.048;24.638;2024-02-04T04:20:36;2.23;;;2.03;;
10463;SDS011;5279;42.048;24.638;2024-02-04T04:23:06;2.30;;;1.90;;
10463;SDS011;5279;42.048;24.638;2024-02-04T04:25:39;3.50;;;3.20;;
10463;SDS011;5279;42.048;24.638;2024-02-04T04:28:06;2.50;;;2.30;;
10463;SDS011;5279;42.048;24.638;2024-02-04T04:30:34;2.83;;;1.80;;
10463;SDS011;5279;42.048;24.638;2024-02-04T04:33:01;2.30;;;2.10;;
10463;SDS011;5279;42.048;24.638;2024-02-04T04:35:27;1.87;;;1.57;;
10463;SDS011;5279;42.048;24.638;2024-02-04T04:37:54;1.97;;;1.87;;
10463;SDS011;5279;42.048;24.638;2024-02-04T04:40:22;1.90;;;1.50;;
10463;SDS011;5279;42.048;24.638;2024-02-04T04:42:49;1.97;;;1.60;;
10463;SDS011;5279;42.048;24.638;2024-02-04T04:45:16;1.60;;;1.50;;
10463;SDS011;5279;42.048;24.638;2024-02-04T04:47:42;1.70;;;1.60;;
10463;SDS011;5279;42.048;24.638;2024-02-04T04:50:09;1.90;;;1.50;;
10463;SDS011;5279;42.048;24.638;2024-02-04T04:52:36;2.03;;;1.70;;
10463;SDS011;5279;42.048;24.638;2024-02-04T04:55:03;3.20;;;1.80;;
10463;SDS011;5279;42.048;24.638;2024-02-04T04:57:31;2.73;;;1.80;;
10463;SDS011;5279;42.048;24.638;2024-02-04T04:59:58;1.77;;;1.60;;
10463;SDS011;5279;42.048;24.638;2024-02-04T05:02:29;4.03;;;1.77;;
10463;SDS011;5279;42.048;24.638;2024-02-04T05:04:56;2.43;;;1.93;;
10463;SDS011;5279;42.048;24.638;2024-02-04T05:07:23;1.90;;;1.80;;
10463;SDS011;5279;42.048;24.638;2024-02-04T05:09:50;2.53;;;2.20;;
10463;SDS011;5279;42.048;24.638;2024-02-04T05:12:17;2.07;;;1.80;;
10463;SDS011;5279;42.048;24.638;2024-02-04T05:14:45;2.47;;;2.23;;
10463;SDS011;5279;42.048;24.638;2024-02-04T05:17:11;2.10;;;1.80;;
10463;SDS011;5279;42.048;24.638;2024-02-04T05:19:40;2.27;;;1.77;;
10463;SDS011;5279;42.048;24.638;2024-02-04T05:22:07;3.20;;;1.77;;
10463;SDS011;5279;42.048;24.638;2024-02-04T05:24:33;2.77;;;2.43;;
10463;SDS011;5279;42.048;24.638;2024-02-04T05:27:00;2.60;;;2.40;;
10463;SDS011;5279;42.048;24.638;2024-02-04T05:29:27;3.03;;;2.70;;
10463;SDS011;5279;42.048;24.638;2024-02-04T05:31:55;1.60;;;1.50;;
10463;SDS011;5279;42.048;24.638;2024-02-04T05:34:22;1.90;;;1.70;;
10463;SDS011;5279;42.048;24.638;2024-02-04T05:36:48;2.00;;;1.90;;
10463;SDS011;5279;42.048;24.638;2024-02-04T05:39:15;2.17;;;1.97;;
10463;SDS011;5279;42.048;24.638;2024-02-04T05:41:42;2.33;;;2.13;;
10463;SDS011;5279;42.048;24.638;2024-02-04T05:44:09;1.70;;;1.60;;
10463;SDS011;5279;42.048;24.638;2024-02-04T05:46:36;2.33;;;2.07;;
10463;SDS011;5279;42.048;24.638;2024-02-04T05:49:04;2.97;;;1.90;;
10463;SDS011;5279;42.048;24.638;2024-02-04T05:51:31;2.80;;;1.70;;
10463;SDS011;5279;42.048;24.638;2024-02-04T05:53:59;1.80;;;1.70;;
10463;SDS011;5279;42.048;24.638;2024-02-04T05:56:25;1.83;;;1.60;;
10463;SDS011;5279;42.048;24.638;2024-02-04T05:58:52;1.90;;;1.80;;
10463;SDS011;5279;42.048;24.638;2024-02-04T06:01:19;1.93;;;1.80;;
10463;SDS011;5279;42.048;24.638;2024-02-04T06:03:45;1.70;;;1.60;;
10463;SDS011;5279;42.048;24.638;2024-02-04T06:06:15;1.73;;;1.63;;
10463;SDS011;5279;42.048;24.638;2024-02-04T06:08:44;1.70;;;1.60;;
10463;SDS011;5279;42.048;24.638;2024-02-04T06:11:11;1.63;;;1.53;;
10463;SDS011;5279;42.048;24.638;2024-02-04T06:13:39;2.53;;;1.90;;
10463;SDS011;5279;42.048;24.638;2024-02-04T06:16:06;2.47;;;1.90;;
10463;SDS011;5279;42.048;24.638;2024-02-04T06:18:36;1.90;;;1.80;;
10463;SDS011;5279;42.048;24.638;2024-02-04T06:21:04;1.70;;;1.60;;
10463;SDS011;5279;42.048;24.638;2024-02-04T06:23:32;2.23;;;1.60;;
10463;SDS011;5279;42.048;24.638;2024-02-04T06:25:59;1.67;;;1.57;;
10463;SDS011;5279;42.048;24.638;2024-02-04T06:28:26;2.10;;;1.90;;
10463;SDS011;5279;42.048;24.638;2024-02-04T06:30:53;2.07;;;1.70;;
10463;SDS011;5279;42.048;24.638;2024-02-04T06:33:20;2.93;;;2.73;;
10463;SDS011;5279;42.048;24.638;2024-02-04T06:35:47;2.00;;;1.90;;
10463;SDS011;5279;42.048;24.638;2024-02-04T06:38:14;1.90;;;1.80;;
10463;SDS011;5279;42.048;24.638;2024-02-04T06:40:42;2.57;;;1.83;;
10463;SDS011;5279;42.048;24.638;2024-02-04T06:43:09;1.90;;;1.80;;
10463;SDS011;5279;42.048;24.638;2024-02-04T06:45:36;1.80;;;1.70;;
10463;SDS011;5279;42.048;24.638;2024-02-04T06:48:03;1.70;;;1.60;;
10463;SDS011;5279;42.048;24.638;2024-02-04T06:50:30;1.97;;;1.50;;
10463;SDS011;5279;42.048;24.638;2024-02-04T06:52:56;2.00;;;1.50;;
10463;SDS011;5279;42.048;24.638;2024-02-04T06:55:23;1.90;;;1.60;;
10463;SDS011;5279;42.048;24.638;2024-02-04T06:57:51;1.53;;;1.43;;
10463;SDS011;5279;42.048;24.638;2024-02-04T07:00:18;1.57;;;1.47;;
10463;SDS011;5279;42.048;24.638;2024-02-04T07:02:46;2.43;;;1.90;;
10463;SDS011;5279;42.048;24.638;2024-02-04T07:05:13;1.80;;;1.70;;
10463;SDS011;5279;42.048;24.638;2024-02-04T07:07:40;2.20;;;1.53;;
10463;SDS011;5279;42.048;24.638;2024-02-04T07:10:07;1.80;;;1.70;;
10463;SDS011;5279;42.048;24.638;2024-02-04T07:12:34;1.60;;;1.50;;
10463;SDS011;5279;42.048;24.638;2024-02-04T07:15:03;1.70;;;1.53;;
10463;SDS011;5279;42.048;24.638;2024-02-04T07:17:30;1.60;;;1.50;;
10463;SDS011;5279;42.048;24.638;2024-02-04T07:19:56;1.70;;;1.60;;
10463;SDS011;5279;42.048;24.638;2024-02-04T07:22:23;2.00;;;1.60;;
10463;SDS011;5279;42.048;24.638;2024-02-04T07:24:50;1.60;;;1.50;;
10463;SDS011;5279;42.048;24.638;2024-02-04T07:27:16;1.60;;;1.50;;
10463;SDS011;5279;42.048;24.638;2024-02-04T07:29:43;1.57;;;1.47;;
10463;SDS011;5279;42.048;24.638;2024-02-04T07:32:13;1.50;;;1.40;;
10463;SDS011;5279;42.048;24.638;2024-02-04T07:34:40;1.73;;;1.53;;
10463;SDS011;5279;42.048;24.638;2024-02-04T07:37:07;1.50;;;1.40;;
10463;SDS011;5279;42.048;24.638;2024-02-04T07:39:33;2.67;;;1.40;;
10463;SDS011;5279;42.048;24.638;2024-02-04T07:42:00;1.73;;;1.63;;
10463;SDS011;5279;42.048;24.638;2024-02-04T07:44:27;1.93;;;1.73;;
10463;SDS011;5279;42.048;24.638;2024-02-04T07:46:54;1.40;;;1.30;;
10463;SDS011;5279;42.048;24.638;2024-02-04T07:49:22;1.57;;;1.47;;
10463;SDS011;5279;42.048;24.638;2024-02-04T07:51:49;1.70;;;1.60;;
10463;SDS011;5279;42.048;24.638;2024-02-04T07:54:16;1.50;;;1.40;;
10463;SDS011;5279;42.048;24.638;2024-02-04T07:56:43;1.50;;;1.33;;
10463;SDS011;5279;42.048;24.638;2024-02-04T07:59:10;1.60;;;1.50;;
10463;SDS011;5279;42.048;24.638;2024-02-04T08:01:36;1.70;;;1.60;;
10463;SDS011;5279;42.048;24.638;2024-02-04T08:04:03;1.70;;;1.60;;
10463;SDS011;5279;42.048;24.638;2024-02-04T08:06:32;1.60;;;1.50;;
10463;SDS011;5279;42.048;24.638;2024-02-04T08:08:59;1.70;;;1.60;;
10463;SDS011;5279;42.048;24.638;2024-02-04T08:11:26;1.40;;;1.30;;
10463;SDS011;5279;42.048;24.638;2024-02-04T08:13:53;2.00;;;1.57;;
10463;SDS011;5279;42.048;24.638;2024-02-04T08:16:19;3.00;;;1.53;;
10463;SDS011;5279;42.048;24.638;2024-02-04T08:18:46;1.70;;;1.60;;
10463;SDS011;5279;42.048;24.638;2024-02-04T08:21:13;1.60;;;1.50;;
10463;SDS011;5279;42.048;24.638;2024-02-04T08:23:41;1.40;;;1.30;;
10463;SDS011;5279;42.048;24.638;2024-02-04T08:26:09;1.50;;;1.40;;
10463;SDS011;5279;42.048;24.638;2024-02-04T08:28:36;1.57;;;1.47;;
10463;SDS011;5279;42.048;24.638;2024-02-04T08:31:03;1.60;;;1.50;;
10463;SDS011;5279;42.048;24.638;2024-02-04T08:33:30;1.43;;;1.33;;
10463;SDS011;5279;42.048;24.638;2024-02-04T08:35:57;1.70;;;1.60;;
10463;SDS011;5279;42.048;24.638;2024-02-04T08:38:23;1.33;;;1.23;;
10463;SDS011;5279;42.048;24.638;2024-02-04T08:40:51;1.40;;;1.30;;
10463;SDS011;5279;42.048;24.638;2024-02-04T08:43:18;1.53;;;1.40;;
10463;SDS011;5279;42.048;24.638;2024-02-04T08:45:45;1.70;;;1.60;;
10463;SDS011;5279;42.048;24.638;2024-02-04T08:51:33;1.30;;;1.20;;
10463;SDS011;5279;42.048;24.638;2024-02-04T08:54:00;1.30;;;1.20;;
10463;SDS011;5279;42.048;24.638;2024-02-04T08:56:28;1.90;;;1.40;;
10463;SDS011;5279;42.048;24.638;2024-02-04T08:58:54;1.87;;;1.10;;
10463;SDS011;5279;42.048;24.638;2024-02-04T09:01:21;1.40;;;1.30;;
10463;SDS011;5279;42.048;24.638;2024-02-04T09:03:48;1.50;;;1.20;;
10463;SDS011;5279;42.048;24.638;2024-02-04T09:06:15;1.40;;;1.30;;
10463;SDS011;5279;42.048;24.638;2024-02-04T09:08:42;1.47;;;1.37;;
10463;SDS011;5279;42.048;24.638;2024-02-04T09:11:08;1.73;;;1.40;;
10463;SDS011;5279;42.048;24.638;2024-02-04T09:13:36;1.37;;;1.27;;
10463;SDS011;5279;42.048;24.638;2024-02-04T09:16:03;1.63;;;1.23;;
10463;SDS011;5279;42.048;24.638;2024-02-04T09:18:30;4.60;;;1.47;;
10463;SDS011;5279;42.048;24.638;2024-02-04T09:20:57;1.50;;;1.40;;
10463;SDS011;5279;42.048;24.638;2024-02-04T09:23:24;1.50;;;1.40;;
10463;SDS011;5279;42.048;24.638;2024-02-04T09:25:50;1.83;;;1.60;;
10463;SDS011;5279;42.048;24.638;2024-02-04T09:28:17;1.50;;;1.40;;
10463;SDS011;5279;42.048;24.638;2024-02-04T09:30:45;1.20;;;1.10;;
10463;SDS011;5279;42.048;24.638;2024-02-04T09:33:13;1.33;;;1.23;;
10463;SDS011;5279;42.048;24.638;2024-02-04T09:35:40;1.70;;;1.60;;
10463;SDS011;5279;42.048;24.638;2024-02-04T09:38:06;1.60;;;1.50;;
10463;SDS011;5279;42.048;24.638;2024-02-04T09:40:33;1.20;;;1.10;;
10463;SDS011;5279;42.048;24.638;2024-02-04T09:43:00;1.43;;;1.33;;
10463;SDS011;5279;42.048;24.638;2024-02-04T09:45:28;1.53;;;1.40;;
10463;SDS011;5279;42.048;24.638;2024-02-04T09:47:57;1.60;;;1.50;;
10463;SDS011;5279;42.048;24.638;2024-02-04T09:50:26;1.20;;;1.03;;
10463;SDS011;5279;42.048;24.638;2024-02-04T09:52:55;1.50;;;1.40;;
10463;SDS011;5279;42.048;24.638;2024-02-04T09:55:24;1.07;;;1.03;;
10463;SDS011;5279;42.048;24.638;2024-02-04T09:57:52;1.30;;;1.17;;
10463;SDS011;5279;42.048;24.638;2024-02-04T10:00:19;1.57;;;1.43;;
10463;SDS011;5279;42.048;24.638;2024-02-04T10:02:46;1.47;;;1.17;;
10463;SDS011;5279;42.048;24.638;2024-02-04T10:05:15;1.53;;;1.20;;
10463;SDS011;5279;42.048;24.638;2024-02-04T10:07:42;1.43;;;1.30;;
10463;SDS011;5279;42.048;24.638;2024-02-04T10:10:09;1.30;;;1.00;;
10463;SDS011;5279;42.048;24.638;2024-02-04T10:12:36;1.93;;;1.40;;
10463;SDS011;5279;42.048;24.638;2024-02-04T10:15:04;1.23;;;1.13;;
10463;SDS011;5279;42.048;24.638;2024-02-04T10:17:32;1.20;;;1.10;;
10463;SDS011;5279;42.048;24.638;2024-02-04T10:19:59;1.23;;;1.03;;
10463;SDS011;5279;42.048;24.638;2024-02-04T10:22:27;1.30;;;1.20;;
10463;SDS011;5279;42.048;24.638;2024-02-04T10:25:04;1.20;;;1.10;;
10463;SDS011;5279;42.048;24.638;2024-02-04T10:27:31;1.40;;;1.30;;
10463;SDS011;5279;42.048;24.638;2024-02-04T10:29:58;1.60;;;1.50;;
10463;SDS011;5279;42.048;24.638;2024-02-04T10:32:26;3.03;;;1.47;;
10463;SDS011;5279;42.048;24.638;2024-02-04T10:34:53;1.53;;;1.43;;
10463;SDS011;5279;42.048;24.638;2024-02-04T10:37:19;1.93;;;1.63;;
10463;SDS011;5279;42.048;24.638;2024-02-04T10:39:52;1.53;;;1.43;;
10463;SDS011;5279;42.048;24.638;2024-02-04T10:42:20;3.37;;;1.40;;
10463;SDS011;5279;42.048;24.638;2024-02-04T10:44:51;2.20;;;1.40;;
10463;SDS011;5279;42.048;24.638;2024-02-04T10:47:21;2.60;;;1.40;;
10463;SDS011;5279;42.048;24.638;2024-02-04T10:49:50;1.20;;;1.10;;
10463;SDS011;5279;42.048;24.638;2024-02-04T10:52:19;0.77;;;0.77;;
10463;SDS011;5279;42.048;24.638;2024-02-04T10:54:49;1.30;;;1.20;;
10463;SDS011;5279;42.048;24.638;2024-02-04T10:57:18;1.50;;;1.40;;
10463;SDS011;5279;42.048;24.638;2024-02-04T10:59:47;1.10;;;1.00;;
10463;SDS011;5279;42.048;24.638;2024-02-04T11:02:14;1.80;;;1.00;;
10463;SDS011;5279;42.048;24.638;2024-02-04T11:04:42;1.70;;;1.00;;
10463;SDS011;5279;42.048;24.638;2024-02-04T11:07:10;1.10;;;1.00;;
10463;SDS011;5279;42.048;24.638;2024-02-04T11:09:39;1.00;;;1.00;;
10463;SDS011;5279;42.048;24.638;2024-02-04T11:15:30;0.83;;;0.83;;
10463;SDS011;5279;42.048;24.638;2024-02-04T11:18:15;2.03;;;0.70;;
10463;SDS011;5279;42.048;24.638;2024-02-04T11:21:03;0.70;;;0.70;;
10463;SDS011;5279;42.048;24.638;2024-02-04T11:23:46;0.90;;;0.80;;
10463;SDS011;5279;42.048;24.638;2024-02-04T11:26:20;0.97;;;0.70;;
10463;SDS011;5279;42.048;24.638;2024-02-04T11:28:48;0.70;;;0.70;;
10463;SDS011;5279;42.048;24.638;2024-02-04T11:31:18;1.30;;;0.60;;
10463;SDS011;5279;42.048;24.638;2024-02-04T11:33:44;2.63;;;0.70;;
10463;SDS011;5279;42.048;24.638;2024-02-04T11:36:12;0.70;;;0.70;;
10463;SDS011;5279;42.048;24.638;2024-02-04T11:38:40;0.50;;;0.50;;
10463;SDS011;5279;42.048;24.638;2024-02-04T11:41:07;0.50;;;0.50;;
10463;SDS011;5279;42.048;24.638;2024-02-04T11:43:34;0.60;;;0.60;;
10463;SDS011;5279;42.048;24.638;2024-02-04T11:46:03;2.03;;;0.60;;
10463;SDS011;5279;42.048;24.638;2024-02-04T11:48:32;0.70;;;0.57;;
10463;SDS011;5279;42.048;24.638;2024-02-04T11:51:02;0.60;;;0.50;;
10463;SDS011;5279;42.048;24.638;2024-02-04T11:53:30;2.57;;;0.63;;
10463;SDS011;5279;42.048;24.638;2024-02-04T11:55:58;0.93;;;0.73;;
10463;SDS011;5279;42.048;24.638;2024-02-04T11:58:28;1.73;;;0.60;;
10463;SDS011;5279;42.048;24.638;2024-02-04T12:00:56;0.70;;;0.70;;
10463;SDS011;5279;42.048;24.638;2024-02-04T12:03:30;0.73;;;0.67;;
10463;SDS011;5279;42.048;24.638;2024-02-04T12:05:58;0.50;;;0.50;;
10463;SDS011;5279;42.048;24.638;2024-02-04T12:08:26;0.63;;;0.60;;
10463;SDS011;5279;42.048;24.638;2024-02-04T12:10:53;0.60;;;0.57;;
10463;SDS011;5279;42.048;24.638;2024-02-04T12:13:21;1.87;;;0.57;;
10463;SDS011;5279;42.048;24.638;2024-02-04T12:15:48;2.23;;;0.60;;
10463;SDS011;5279;42.048;24.638;2024-02-04T12:18:15;0.77;;;0.77;;
10463;SDS011;5279;42.048;24.638;2024-02-04T12:20:46;0.83;;;0.83;;
10463;SDS011;5279;42.048;24.638;2024-02-04T12:23:14;3.23;;;0.90;;
10463;SDS011;5279;42.048;24.638;2024-02-04T12:25:41;4.03;;;1.03;;
10463;SDS011;5279;42.048;24.638;2024-02-04T12:28:08;1.30;;;0.80;;
10463;SDS011;5279;42.048;24.638;2024-02-04T12:30:35;0.87;;;0.83;;
10463;SDS011;5279;42.048;24.638;2024-02-04T12:33:02;0.80;;;0.73;;
10463;SDS011;5279;42.048;24.638;2024-02-04T12:35:30;0.60;;;0.60;;
10463;SDS011;5279;42.048;24.638;2024-02-04T12:37:59;0.60;;;0.60;;
10463;SDS011;5279;42.048;24.638;2024-02-04T12:40:29;0.80;;;0.80;;
10463;SDS011;5279;42.048;24.638;2024-02-04T12:42:57;2.23;;;0.80;;
10463;SDS011;5279;42.048;24.638;2024-02-04T12:45:26;0.60;;;0.60;;
10463;SDS011;5279;42.048;24.638;2024-02-04T12:47:55;1.20;;;0.87;;
10463;SDS011;5279;42.048;24.638;2024-02-04T12:50:23;2.00;;;0.90;;
10463;SDS011;5279;42.048;24.638;2024-02-04T12:53:01;1.67;;;1.30;;
10463;SDS011;5279;42.048;24.638;2024-02-04T12:55:30;1.57;;;0.90;;
10463;SDS011;5279;42.048;24.638;2024-02-04T12:58:04;1.63;;;1.10;;
10463;SDS011;5279;42.048;24.638;2024-02-04T13:00:32;2.07;;;0.77;;
10463;SDS011;5279;42.048;24.638;2024-02-04T13:02:58;0.90;;;0.90;;
10463;SDS011;5279;42.048;24.638;2024-02-04T13:05:25;1.27;;;1.00;;
10463;SDS011;5279;42.048;24.638;2024-02-04T13:07:55;0.70;;;0.70;;
10463;SDS011;5279;42.048;24.638;2024-02-04T13:10:24;2.10;;;1.07;;
10463;SDS011;5279;42.048;24.638;2024-02-04T13:12:57;1.97;;;1.27;;
10463;SDS011;5279;42.048;24.638;2024-02-04T13:15:26;1.10;;;1.00;;
10463;SDS011;5279;42.048;24.638;2024-02-04T13:17:53;1.07;;;0.93;;
10463;SDS011;5279;42.048;24.638;2024-02-04T13:20:20;1.87;;;0.80;;
10463;SDS011;5279;42.048;24.638;2024-02-04T13:22:46;0.90;;;0.90;;
10463;SDS011;5279;42.048;24.638;2024-02-04T13:25:13;0.93;;;0.90;;
10463;SDS011;5279;42.048;24.638;2024-02-04T13:27:41;1.30;;;0.70;;
10463;SDS011;5279;42.048;24.638;2024-02-04T13:30:08;1.13;;;1.00;;
10463;SDS011;5279;42.048;24.638;2024-02-04T13:32:37;1.57;;;1.20;;
10463;SDS011;5279;42.048;24.638;2024-02-04T13:35:05;2.83;;;1.30;;
10463;SDS011;5279;42.048;24.638;2024-02-04T13:37:33;2.00;;;1.33;;
10463;SDS011;5279;42.048;24.638;2024-02-04T13:40:01;1.30;;;1.17;;
10463;SDS011;5279;42.048;24.638;2024-02-04T13:42:29;0.87;;;0.73;;
10463;SDS011;5279;42.048;24.638;2024-02-04T13:45:01;0.80;;;0.80;;
10463;SDS011;5279;42.048;24.638;2024-02-04T13:47:28;0.90;;;0.90;;
10463;SDS011;5279;42.048;24.638;2024-02-04T13:49:55;1.10;;;1.00;;
10463;SDS011;5279;42.048;24.638;2024-02-04T13:55:43;1.80;;;1.20;;
10463;SDS011;5279;42.048;24.638;2024-02-04T13:58:10;1.70;;;1.00;;
10463;SDS011;5279;42.048;24.638;2024-02-04T14:00:38;1.40;;;1.20;;
10463;SDS011;5279;42.048;24.638;2024-02-04T14:03:05;1.37;;;1.17;;
10463;SDS011;5279;42.048;24.638;2024-02-04T14:05:32;1.27;;;1.10;;
10463;SDS011;5279;42.048;24.638;2024-02-04T14:07:58;2.73;;;1.10;;
10463;SDS011;5279;42.048;24.638;2024-02-04T14:10:25;1.10;;;0.93;;
10463;SDS011;5279;42.048;24.638;2024-02-04T14:12:52;1.47;;;1.10;;
10463;SDS011;5279;42.048;24.638;2024-02-04T14:15:19;1.23;;;0.90;;
10463;SDS011;5279;42.048;24.638;2024-02-04T14:17:47;2.20;;;1.00;;
10463;SDS011;5279;42.048;24.638;2024-02-04T14:20:14;1.23;;;1.00;;
10463;SDS011;5279;42.048;24.638;2024-02-04T14:22:41;1.43;;;0.90;;
10463;SDS011;5279;42.048;24.638;2024-02-04T14:25:07;1.50;;;0.90;;
10463;SDS011;5279;42.048;24.638;2024-02-04T14:27:36;1.07;;;0.90;;
10463;SDS011;5279;42.048;24.638;2024-02-04T14:30:03;1.33;;;0.87;;
10463;SDS011;5279;42.048;24.638;2024-02-04T14:32:31;0.73;;;0.73;;
10463;SDS011;5279;42.048;24.638;2024-02-04T14:35:00;0.97;;;0.80;;
10463;SDS011;5279;42.048;24.638;2024-02-04T14:37:29;3.53;;;1.30;;
10463;SDS011;5279;42.048;24.638;2024-02-04T14:39:57;3.80;;;1.00;;
10463;SDS011;5279;42.048;24.638;2024-02-04T14:42:25;1.43;;;0.97;;
10463;SDS011;5279;42.048;24.638;2024-02-04T14:44:51;1.30;;;1.20;;
10463;SDS011;5279;42.048;24.638;2024-02-04T14:47:18;1.33;;;1.10;;
10463;SDS011;5279;42.048;24.638;2024-02-04T14:49:45;1.43;;;0.90;;
10463;SDS011;5279;42.048;24.638;2024-02-04T14:52:14;2.23;;;0.90;;
10463;SDS011;5279;42.048;24.638;2024-02-04T14:54:43;1.17;;;1.07;;
10463;SDS011;5279;42.048;24.638;2024-02-04T14:57:09;1.93;;;1.00;;
10463;SDS011;5279;42.048;24.638;2024-02-04T14:59:36;1.87;;;1.17;;
10463;SDS011;5279;42.048;24.638;2024-02-04T15:02:04;0.90;;;0.90;;
10463;SDS011;5279;42.048;24.638;2024-02-04T15:04:30;1.30;;;1.10;;
10463;SDS011;5279;42.048;24.638;2024-02-04T15:06:58;2.03;;;1.83;;